Fresnal Canyon, Arizona
Current Conditions -  °F | °C
As of 6:48 PM on Sunday 25 Jan 2015 (Local Time) from KRYN Reporting Station
Clear Clear  
Wind Chill: 18°   Ceiling: Unl
Heat Index: 18°   Visibility: 10mi
Dew Point: -8°   Wind: 6mph
Humidity: 16%   Direction: 140°SE
Pressure: 30.1"   Gusts: NA
Location:  32.0925°N, 112.129°W
Report Text: KRYN 260148Z 14005KT 10SM CLR 18/M08 A3010
Loading
Personal Weather Stations






























Interactive Weather Map New forecast layout! Learn more

10-Day Weather Forecast

Advertisements
Track Severe Weather on mobile